Time;durP1;ratioP1;P1;durP2;ratioP2;P2;SDS_P1;SDS_P2;PMS_P1;PMS_P2;Temp;Humidity;BMP_temperature;BMP_pressure;BME280_temperature;BME280_humidity;BME280_pressure;Samples;Min_cycle;Max_cycle;Signal;HPM_P1;HPM_P2
2021/03/17 00:02:10;;;;;;;4.47;2.40;;;4.80;99.90;;;3.10;91.05;102012.19;4910899;28;103417;-40
2021/03/17 00:04:48;;;;;;;6.07;2.30;;;4.80;99.90;;;3.08;91.77;102011.47;4910762;28;102338;-40
2021/03/17 00:07:25;;;;;;;5.97;2.85;;;4.80;99.90;;;3.07;91.46;102013.34;4926014;28;102525;-40
2021/03/17 00:10:05;;;;;;;5.13;2.72;;;4.80;99.90;;;3.07;92.19;102013.34;4896474;28;102815;-40
2021/03/17 00:12:43;;;;;;;6.78;3.20;;;4.80;99.90;;;3.12;91.78;102018.31;4925518;28;104439;-40
2021/03/17 00:15:23;;;;;;;8.68;3.30;;;4.80;99.90;;;3.12;92.62;102023.69;4910068;28;102828;-41
2021/03/17 00:18:01;;;;;;;7.18;3.30;;;4.80;99.90;;;3.12;91.65;102018.31;4910571;28;103484;-40
2021/03/17 00:20:39;;;;;;;7.23;3.43;;;4.80;99.90;;;3.14;92.51;102028.00;4925172;28;102628;-40
2021/03/17 00:23:18;;;;;;;7.70;3.50;;;4.80;99.90;;;3.18;92.23;102028.56;4910105;28;103471;-40
2021/03/17 00:25:55;;;;;;;6.45;3.00;;;4.90;99.90;;;3.16;92.23;102030.53;4910796;28;102373;-40
2021/03/17 00:28:32;;;;;;;5.53;2.70;;;4.80;99.90;;;3.15;91.58;102031.53;4911226;28;102489;-41
2021/03/17 00:31:09;;;;;;;4.80;2.55;;;4.90;99.90;;;3.10;91.45;102040.03;4940225;28;103785;-40
2021/03/17 00:33:46;;;;;;;4.93;2.50;;;4.80;99.90;;;3.07;91.36;102044.81;4909849;28;102959;-40
2021/03/17 00:36:23;;;;;;;4.82;2.35;;;4.80;99.90;;;3.09;90.94;102051.81;4910694;28;102498;-40
2021/03/17 00:39:00;;;;;;;5.53;2.63;;;4.80;99.90;;;3.08;91.83;102049.22;4910392;28;103331;-40
2021/03/17 00:41:37;;;;;;;6.88;2.58;;;4.80;99.90;;;3.07;91.32;102053.78;4927858;28;103335;-40
2021/03/17 00:44:29;;;;;;;5.05;2.40;;;4.80;99.90;;;3.07;91.21;102050.22;4930372;28;104547;-40
2021/03/17 00:47:06;;;;;;;5.82;3.08;;;4.80;99.90;;;3.06;92.37;102051.22;4897501;28;104608;-40
2021/03/17 00:49:34;;;;;;;10.35;3.00;;;4.80;99.90;;;3.08;91.54;102054.63;4910898;28;105167;-40
2021/03/17 00:52:01;;;;;;;6.47;2.53;;;4.80;99.90;;;3.11;91.36;102057.06;4894967;28;104133;-40
2021/03/17 00:54:38;;;;;;;5.80;2.55;;;4.80;99.90;;;3.11;91.88;102054.34;4913058;28;104412;-40
2021/03/17 00:57:15;;;;;;;6.85;2.78;;;4.80;99.90;;;3.10;92.15;102055.34;4927618;28;102484;-41
2021/03/17 00:59:42;;;;;;;5.20;2.55;;;4.80;99.90;;;3.10;91.90;102049.94;4895183;28;102374;-40
2021/03/17 01:02:10;;;;;;;5.82;2.60;;;4.80;99.90;;;3.11;92.03;102049.84;4926408;28;104044;-40
2021/03/17 01:04:38;;;;;;;7.43;3.13;;;4.80;99.90;;;3.09;91.16;102054.50;4910014;28;106595;-41
2021/03/17 01:07:08;;;;;;;6.50;2.90;;;4.80;99.90;;;3.11;91.94;102054.34;4910881;28;102636;-40
2021/03/17 01:09:35;;;;;;;6.22;3.05;;;4.80;99.90;;;3.08;91.50;102054.63;4911123;28;103368;-40
2021/03/17 01:12:04;;;;;;;6.78;3.13;;;4.80;99.90;;;3.08;91.59;102050.09;4878835;28;103518;-40
2021/03/17 01:14:43;;;;;;;;;;;4.80;99.90;;;3.08;91.93;102043.84;4896749;28;103591;-40
2021/03/17 01:17:12;;;;;;;9.93;3.75;;;4.80;99.90;;;3.06;91.58;102041.28;4926691;28;102662;-40
2021/03/17 01:19:40;;;;;;;6.20;3.40;;;4.80;99.90;;;3.10;91.49;102052.66;4910435;28;104222;-40
2021/03/17 01:22:09;;;;;;;6.20;3.80;;;4.80;99.90;;;3.11;91.00;102052.53;4926244;28;103354;-40
2021/03/17 01:24:36;;;;;;;8.70;3.60;;;4.80;99.90;;;3.08;90.78;102050.09;4909986;28;104023;-40
2021/03/17 01:27:04;;;;;;;8.48;3.72;;;4.80;99.90;;;3.08;90.93;102047.41;4927057;28;102808;-40
2021/03/17 01:29:31;;;;;;;;;;;4.80;99.90;;;3.09;91.29;102048.25;4911775;28;102366;-40
2021/03/17 01:31:59;;;;;;;8.23;4.00;;;4.80;99.90;;;3.06;91.60;102046.69;4926428;28;102664;-40
2021/03/17 01:34:27;;;;;;;8.45;3.83;;;4.80;99.90;;;3.09;92.25;102053.63;4925571;28;103555;-41
2021/03/17 01:36:54;;;;;;;11.40;4.63;;;4.80;99.90;;;3.10;92.07;102050.81;4910415;28;102690;-41
2021/03/17 01:39:21;;;;;;;9.88;4.38;;;4.80;99.90;;;3.07;91.87;102059.19;4925882;28;105222;-40
2021/03/17 01:41:49;;;;;;;9.77;3.75;;;4.80;99.90;;;3.07;92.14;102053.78;4894097;28;103776;-40
2021/03/17 01:44:16;;;;;;;10.07;4.80;;;4.80;99.90;;;3.10;91.90;102053.53;4877805;28;106435;-40
2021/03/17 01:46:44;;;;;;;10.27;5.07;;;4.80;99.90;;;3.09;91.56;102053.63;4926494;28;102650;-40
2021/03/17 01:49:12;;;;;;;;;;;4.80;99.90;;;3.07;92.60;102048.41;4927273;28;105246;-40
2021/03/17 01:51:39;;;;;;;10.00;4.68;;;4.80;99.90;;;3.08;92.04;102054.63;4926113;28;102988;-40
2021/03/17 01:54:12;;;;;;;9.20;4.03;;;4.80;99.90;;;3.10;91.63;102064.31;4909889;28;104686;-40
2021/03/17 01:56:39;;;;;;;7.15;3.10;;;4.80;99.90;;;3.14;91.04;102072.97;4892966;28;105710;-40
2021/03/17 01:59:07;;;;;;;4.95;2.53;;;4.80;99.90;;;3.09;89.64;102067.13;4926296;28;103619;-40
2021/03/17 02:01:35;;;;;;;4.95;2.30;;;4.80;99.90;;;3.05;90.22;102065.69;4878221;28;104358;-40
2021/03/17 02:04:04;;;;;;;6.53;2.85;;;4.80;99.90;;;3.08;90.37;102066.28;4925489;28;104291;-41
2021/03/17 02:06:32;;;;;;;6.20;2.85;;;4.80;99.90;;;3.07;91.09;102077.19;4894139;28;102686;-40
2021/03/17 02:09:00;;;;;;;6.32;3.08;;;4.70;99.90;;;3.07;90.28;102071.78;4878418;28;102330;-40
2021/03/17 02:11:28;;;;;;;5.85;3.35;;;4.80;99.90;;;3.13;90.45;102071.25;4963489;23;102859;-39
2021/03/17 02:14:21;;;;;;;5.75;3.25;;;4.80;99.90;;;3.09;90.35;102067.13;4913158;28;103498;-40
2021/03/17 02:17:05;;;;;;;6.55;3.45;;;4.80;99.90;;;3.08;90.27;102074.38;4922744;28;103635;-40
2021/03/17 02:20:01;;;;;;;7.68;3.40;;;4.80;99.90;;;3.12;90.55;102080.34;4922736;28;102595;-39
2021/03/17 02:22:45;;;;;;;5.47;3.38;;;4.80;99.90;;;3.07;90.88;102082.59;4924460;28;103555;-40
2021/03/17 02:25:41;;;;;;;7.60;3.80;;;4.80;99.90;;;3.00;89.96;102080.41;4918917;28;103358;-40
2021/03/17 02:28:24;;;;;;;7.97;4.03;;;4.70;99.90;;;2.97;90.74;102080.69;4919289;28;102602;-40
2021/03/17 02:31:08;;;;;;;8.23;4.32;;;4.70;99.90;;;3.01;90.93;102090.22;4919373;28;102286;-40
2021/03/17 02:33:45;;;;;;;8.27;4.13;;;4.70;99.90;;;2.96;91.26;102080.81;4918531;28;103728;-40
2021/03/17 02:36:22;;;;;;;8.18;3.70;;;4.60;99.90;;;2.94;90.55;102080.94;4918930;28;105281;-40
2021/03/17 02:39:05;;;;;;;6.45;3.45;;;4.70;99.90;;;2.94;90.71;102080.09;4903110;28;104132;-40
2021/03/17 02:41:46;;;;;;;6.97;3.42;;;4.70;99.90;;;2.92;90.43;102087.44;4902851;28;102327;-40
2021/03/17 02:44:20;;;;;;;6.90;3.03;;;4.60;99.90;;;2.94;89.90;102090.88;4902085;28;103362;-40
2021/03/17 02:46:49;;;;;;;6.43;3.00;;;4.60;99.90;;;2.97;90.42;102091.47;4903758;28;102604;-40
2021/03/17 02:49:24;;;;;;;6.70;3.80;;;4.70;99.90;;;2.92;90.21;102092.84;4918713;28;103815;-40
2021/03/17 02:51:59;;;;;;;9.55;3.92;;;4.60;99.90;;;2.93;90.25;102083.75;4918419;28;104351;-40
2021/03/17 02:54:29;;;;;;;9.65;4.43;;;4.60;99.90;;;2.93;89.94;102087.34;4918172;28;102441;-40
2021/03/17 02:57:06;;;;;;;10.13;4.63;;;4.70;99.90;;;2.90;90.66;102092.13;4917670;28;103444;-40
2021/03/17 02:59:38;;;;;;;11.45;5.45;;;4.60;99.90;;;2.86;91.05;102091.50;4902874;28;103537;-40
2021/03/17 03:02:07;;;;;;;10.82;5.50;;;4.60;99.90;;;2.88;91.13;102097.63;4902344;28;104459;-40
2021/03/17 03:04:37;;;;;;;10.80;5.03;;;4.60;99.90;;;2.90;90.96;102089.41;4917933;28;102671;-40
2021/03/17 03:07:05;;;;;;;12.50;5.97;;;4.60;99.90;;;2.88;90.54;102093.09;4902551;28;103327;-39
2021/03/17 03:09:35;;;;;;;9.35;5.00;;;4.60;99.90;;;2.83;90.59;102092.66;4902753;28;102655;-40
2021/03/17 03:12:03;;;;;;;11.55;4.85;;;4.60;99.90;;;2.84;90.41;102091.66;4930827;28;104421;-40
2021/03/17 03:14:33;;;;;;;7.88;3.67;;;4.50;99.90;;;2.81;90.26;102097.31;4924402;28;102526;-40
2021/03/17 03:17:04;;;;;;;7.60;4.13;;;4.50;99.90;;;2.79;90.33;102091.22;4908091;28;104350;-40
2021/03/17 03:19:38;;;;;;;7.28;3.63;;;4.50;99.90;;;2.78;90.80;102086.75;4924593;28;102703;-40
2021/03/17 03:22:09;;;;;;;5.32;3.10;;;4.50;99.90;;;2.79;90.61;102087.63;4908934;28;105065;-39
2021/03/17 03:24:38;;;;;;;5.88;2.85;;;4.50;99.90;;;2.74;90.36;102085.31;4924477;28;102375;-40
2021/03/17 03:27:07;;;;;;;4.80;2.45;;;4.50;99.90;;;2.71;89.92;102086.47;4908851;28;102427;-40
2021/03/17 03:29:36;;;;;;;4.90;2.53;;;4.50;99.90;;;2.69;90.33;102091.13;4941958;28;102328;-40
2021/03/17 03:32:05;;;;;;;5.57;2.90;;;4.40;99.90;;;2.62;89.93;102091.75;4924257;28;104323;-40
2021/03/17 03:34:33;;;;;;;6.03;2.63;;;4.40;99.90;;;2.54;89.61;102092.41;4923293;28;104975;-39
2021/03/17 03:37:01;;;;;;;;;;;4.30;99.90;;;2.51;90.37;102095.34;4910326;28;103469;-40
2021/03/17 03:39:28;;;;;;;6.63;3.10;;;4.30;99.90;;;2.52;90.51;102089.84;4908940;28;103265;-40
2021/03/17 03:41:56;;;;;;;6.13;2.80;;;4.30;99.90;;;2.53;90.92;102088.88;4908350;28;103401;-40
2021/03/17 03:44:23;;;;;;;6.70;3.55;;;4.30;99.90;;;2.55;90.81;102088.72;4924085;28;102620;-40
2021/03/17 03:46:51;;;;;;;7.65;3.38;;;4.30;99.90;;;2.53;91.02;102085.31;4892600;28;104477;-40
2021/03/17 03:49:19;;;;;;;8.30;3.63;;;4.20;99.90;;;2.56;90.39;102095.81;4893085;28;102512;-40
2021/03/17 03:52:05;;;;;;;7.57;3.55;;;4.30;99.90;;;2.56;90.75;102099.38;4924235;28;104169;-40
2021/03/17 03:54:45;;;;;;;8.30;4.40;;;4.30;99.90;;;2.52;90.48;102095.25;4923559;28;102934;-39
2021/03/17 03:57:27;;;;;;;9.98;4.80;;;4.30;99.90;;;2.52;90.89;102087.16;4924560;28;102372;-40
2021/03/17 04:00:05;;;;;;;9.73;4.60;;;4.30;99.90;;;2.55;90.86;102094.09;4941719;28;102705;-40
2021/03/17 04:02:43;;;;;;;9.93;4.95;;;4.30;99.90;;;2.54;91.44;102089.69;4940480;28;103336;-40
2021/03/17 04:05:17;;;;;;;8.50;4.03;;;4.30;99.90;;;2.58;91.28;102083.06;4939924;28;102739;-40
2021/03/17 04:07:51;;;;;;;6.70;4.07;;;4.30;99.90;;;2.63;91.25;102083.53;4922555;28;104364;-39
2021/03/17 04:10:23;;;;;;;8.07;3.85;;;4.30;99.90;;;2.56;90.49;102085.91;4908405;28;104039;-39
2021/03/17 04:12:56;;;;;;;7.88;3.95;;;4.30;99.90;;;2.64;91.12;102084.41;4923059;28;104417;-39
2021/03/17 04:15:25;;;;;;;6.20;3.83;;;4.30;99.90;;;2.59;91.16;102084.78;4924808;28;103290;-40
2021/03/17 04:18:07;;;;;;;7.00;3.78;;;4.30;99.90;;;2.59;91.46;102087.47;4943568;28;102420;-39
2021/03/17 04:20:42;;;;;;;6.35;3.40;;;4.30;99.90;;;2.61;91.40;102087.34;4927353;28;105032;-39
2021/03/17 04:23:12;;;;;;;5.57;3.42;;;4.30;99.90;;;2.61;91.15;102093.59;4943742;28;103420;-39
2021/03/17 04:25:47;;;;;;;5.63;2.80;;;4.30;99.90;;;2.61;91.07;102100.84;4911506;28;102874;-39
2021/03/17 04:28:21;;;;;;;4.47;2.40;;;4.30;99.90;;;2.52;90.29;102097.06;4912246;28;102421;-39
2021/03/17 04:30:53;;;;;;;5.03;2.63;;;4.30;99.90;;;2.54;91.39;102097.78;4927206;28;102526;-40
2021/03/17 04:33:22;;;;;;;5.95;2.70;;;4.30;99.90;;;2.51;91.21;102096.19;4911163;28;102359;-40
2021/03/17 04:35:55;;;;;;;4.43;2.50;;;4.20;99.90;;;2.53;91.67;102104.16;4927375;28;102686;-40
2021/03/17 04:38:28;;;;;;;5.40;2.75;;;4.30;99.90;;;2.48;91.08;102107.22;4927656;28;103444;-39
2021/03/17 04:40:58;;;;;;;4.95;2.60;;;4.20;99.90;;;2.50;91.00;102110.66;4927370;28;103557;-39
2021/03/17 04:43:26;;;;;;;4.53;2.55;;;4.20;99.90;;;2.51;91.39;102101.56;4911354;28;102418;-39
2021/03/17 04:45:55;;;;;;;5.25;2.60;;;4.20;99.90;;;2.50;90.92;102109.81;4926789;28;104546;-39
2021/03/17 04:48:25;;;;;;;4.70;2.50;;;4.20;99.90;;;2.48;91.53;102107.22;4927809;28;102529;-40
2021/03/17 04:50:54;;;;;;;5.18;2.80;;;4.20;99.90;;;2.48;90.85;102101.84;4943272;28;104093;-40
2021/03/17 04:53:22;;;;;;;4.85;2.60;;;4.20;99.90;;;2.49;91.37;102102.72;4926422;28;104392;-39
2021/03/17 04:55:50;;;;;;;5.43;2.90;;;4.20;99.90;;;2.52;91.59;102113.22;4911150;28;102533;-40
2021/03/17 04:58:24;;;;;;;5.13;2.67;;;4.20;99.90;;;2.49;91.27;102114.31;4925786;28;102594;-39
2021/03/17 05:00:54;;;;;;;5.75;2.83;;;4.20;99.90;;;2.48;91.61;102115.31;4926673;28;104450;-40
2021/03/17 05:03:25;;;;;;;5.68;2.83;;;4.20;99.90;;;2.51;91.75;102109.66;4925957;28;102334;-40
2021/03/17 05:05:55;;;;;;;5.13;2.60;;;4.20;99.90;;;2.49;91.49;102117.03;4927355;28;102490;-40
2021/03/17 05:08:28;;;;;;;5.38;2.53;;;4.20;99.90;;;2.50;91.70;102109.81;4926950;28;104528;-40
2021/03/17 05:10:57;;;;;;;6.00;2.88;;;4.20;99.90;;;2.50;91.89;102112.50;4926557;28;103739;-40
2021/03/17 05:13:26;;;;;;;5.60;3.30;;;4.20;99.90;;;2.49;91.97;102113.50;4942308;28;102329;-40
2021/03/17 05:15:54;;;;;;;6.97;3.35;;;4.20;99.90;;;2.51;92.14;102120.44;4927264;28;105608;-40
2021/03/17 05:18:25;;;;;;;6.13;3.60;;;4.20;99.90;;;2.51;92.63;102117.75;4911130;28;105402;-40
2021/03/17 05:20:54;;;;;;;5.78;3.17;;;4.20;99.90;;;2.50;92.63;102120.59;4926565;28;102616;-40
2021/03/17 05:23:22;;;;;;;6.95;3.30;;;4.20;99.90;;;2.50;92.33;102118.72;4942999;28;103301;-40
2021/03/17 05:25:52;;;;;;;6.85;3.70;;;4.20;99.90;;;2.54;92.66;102124.72;4926348;28;104499;-40
2021/03/17 05:28:23;;;;;;;5.75;3.45;;;4.20;99.90;;;2.51;92.23;102125.00;4944120;28;104443;-40
2021/03/17 05:30:53;;;;;;;6.47;3.53;;;4.30;99.90;;;2.50;92.94;102118.72;4926647;28;102636;-39
2021/03/17 05:33:26;;;;;;;7.00;3.78;;;4.20;99.90;;;2.49;92.76;102124.25;4942674;28;104426;-39
2021/03/17 05:35:55;;;;;;;7.07;3.70;;;4.20;99.90;;;2.53;93.11;102125.72;4927107;28;104115;-39
2021/03/17 05:38:23;;;;;;;6.57;3.67;;;4.20;99.90;;;2.52;92.58;102126.69;4942486;28;102487;-40
2021/03/17 05:40:50;;;;;;;8.30;3.60;;;4.20;99.90;;;2.58;92.48;102124.34;4910766;28;102691;-40
2021/03/17 05:43:18;;;;;;;9.02;3.80;;;4.30;99.90;;;2.61;92.73;102123.22;4943193;28;103298;-40
2021/03/17 05:45:48;;;;;;;6.15;3.22;;;4.30;99.90;;;2.60;92.12;102121.53;4942525;28;103216;-40
2021/03/17 05:48:18;;;;;;;6.95;3.40;;;4.30;99.90;;;2.60;92.36;102129.59;4926836;28;104526;-40
2021/03/17 05:50:47;;;;;;;5.68;3.20;;;4.30;99.90;;;2.66;93.22;102129.13;4943348;28;102409;-40
2021/03/17 05:53:15;;;;;;;6.45;3.45;;;4.30;99.90;;;2.65;92.90;102131.91;4926236;28;104904;-40
2021/03/17 05:55:44;;;;;;;6.00;3.60;;;4.40;99.90;;;2.64;92.55;102132.91;4925773;28;103311;-40
2021/03/17 05:58:12;;;;;;;7.35;3.95;;;4.30;99.90;;;2.63;91.85;102132.03;4940994;28;104397;-40
2021/03/17 06:00:40;;;;;;;7.45;3.88;;;4.40;99.90;;;2.70;92.08;102133.25;4926408;28;102577;-40
2021/03/17 06:03:10;;;;;;;9.82;3.90;;;4.40;99.90;;;2.70;91.82;102137.78;4926350;28;105680;-40
2021/03/17 06:05:38;;;;;;;6.47;3.50;;;4.40;99.90;;;2.65;91.89;102129.22;4942500;28;102274;-39
2021/03/17 06:08:12;;;;;;;;;;;4.40;99.90;;;2.69;92.15;102125.28;4927574;28;103526;-40
2021/03/17 06:10:41;;;;;;;6.78;3.45;;;4.40;99.90;;;2.69;92.03;102136.06;4942432;28;103926;-40
2021/03/17 06:13:14;;;;;;;6.78;3.67;;;4.40;99.90;;;2.71;91.79;102132.28;4942204;28;103669;-40
2021/03/17 06:15:52;;;;;;;7.25;3.88;;;4.40;99.90;;;2.71;92.21;102129.56;4943312;28;103156;-40
2021/03/17 06:18:36;;;;;;;5.75;3.13;;;4.40;99.90;;;2.72;92.36;102142.06;4943416;28;102386;-40
2021/03/17 06:21:06;;;;;;;7.03;3.35;;;4.40;99.90;;;2.75;91.99;102137.41;4925668;28;102563;-40
2021/03/17 06:23:34;;;;;;;6.72;3.80;;;4.40;99.90;;;2.77;92.13;102135.44;4941976;28;102251;-39
2021/03/17 06:26:06;;;;;;;7.18;3.65;;;4.40;99.90;;;2.75;92.12;102135.53;4926695;28;102495;-39
2021/03/17 06:28:34;;;;;;;6.50;3.30;;;4.50;99.90;;;2.78;92.55;102139.84;4925994;28;102299;-40
2021/03/17 06:31:03;;;;;;;7.50;3.60;;;4.50;99.90;;;2.79;92.66;102139.72;4909660;28;103373;-40
2021/03/17 06:33:31;;;;;;;6.85;3.78;;;4.50;99.90;;;2.82;92.54;102143.97;4925301;28;104645;-39
2021/03/17 06:36:19;;;;;;;6.23;3.53;;;4.50;99.90;;;2.80;92.49;102136.03;4925833;28;102690;-40
2021/03/17 06:38:48;;;;;;;6.57;3.40;;;4.50;99.90;;;2.81;92.73;102136.88;4941723;28;102458;-40
2021/03/17 06:41:18;;;;;;;7.80;3.72;;;4.50;99.90;;;2.85;92.20;102138.31;4942533;28;102610;-39
2021/03/17 06:43:50;;;;;;;8.13;4.43;;;4.50;99.90;;;2.82;91.83;102138.59;4924936;28;104447;-40
2021/03/17 06:46:20;;;;;;;7.32;3.88;;;4.50;99.90;;;2.82;92.23;102138.59;4940954;28;102456;-40
2021/03/17 06:48:58;;;;;;;7.25;3.78;;;4.50;99.90;;;2.85;92.58;102141.03;4942432;28;102457;-40
2021/03/17 06:51:30;;;;;;;8.13;4.07;;;4.50;99.90;;;2.84;92.82;102129.41;4925364;28;102663;-40
2021/03/17 06:54:02;;;;;;;6.93;3.97;;;4.50;99.90;;;2.87;92.43;102133.66;4942239;28;104227;-40
2021/03/17 06:56:33;;;;;;;7.40;4.05;;;4.50;99.90;;;2.87;93.12;102133.66;4923486;28;102364;-39
2021/03/17 06:59:07;;;;;;;8.57;4.28;;;4.60;99.90;;;2.95;92.95;102133.88;4926132;28;102416;-40
2021/03/17 07:01:40;;;;;;;9.45;4.15;;;4.60;99.90;;;2.99;91.99;102131.78;4942175;28;102582;-40
2021/03/17 07:04:21;;;;;;;8.05;4.22;;;4.60;99.90;;;3.01;91.32;102132.50;4941424;28;102497;-40
2021/03/17 07:07:01;;;;;;;8.25;4.38;;;4.70;99.90;;;2.98;91.80;102132.75;4925330;28;102601;-39
2021/03/17 07:09:31;;;;;;;6.55;3.90;;;4.70;99.90;;;2.99;91.59;102131.78;4942805;28;102789;-40
2021/03/17 07:12:10;;;;;;;6.82;3.63;;;4.70;99.90;;;3.00;91.66;102133.47;4925558;28;103522;-40
2021/03/17 07:14:42;;;;;;;10.20;4.90;;;4.70;99.90;;;2.97;91.26;102131.03;4941622;28;102409;-39
2021/03/17 07:17:25;;;;;;;10.68;5.15;;;4.70;99.90;;;2.97;90.76;102133.75;4942080;28;102428;-39
2021/03/17 07:19:53;;;;;;;10.50;5.05;;;4.60;99.90;;;2.94;91.13;102126.78;4940986;28;102378;-40
2021/03/17 07:22:20;;;;;;;8.88;4.28;;;4.60;99.90;;;2.99;91.11;102129.06;4924743;28;102624;-40
2021/03/17 07:25:01;;;;;;;9.30;4.05;;;4.70;99.90;;;3.02;91.08;102126.09;4924555;28;103293;-40
2021/03/17 07:27:33;;;;;;;6.75;3.38;;;4.70;99.90;;;3.07;90.93;102120.34;4924407;28;103356;-40
2021/03/17 07:30:03;;;;;;;7.03;3.70;;;4.70;99.90;;;3.10;90.90;102122.78;4941573;28;102258;-40
2021/03/17 07:32:56;;;;;;;7.30;3.75;;;4.70;99.90;;;3.20;91.79;102131.78;4941671;28;104558;-40
2021/03/17 07:35:26;;;;;;;8.30;3.83;;;4.80;99.90;;;3.26;90.64;102133.09;4941596;28;102358;-40
2021/03/17 07:38:11;;;;;;;8.40;3.72;;;4.90;99.90;;;3.35;90.10;102142.25;4942147;28;103506;-40
2021/03/17 07:40:43;;;;;;;7.95;3.55;;;4.90;99.90;;;3.31;89.86;102138.94;4942193;28;104342;-40
2021/03/17 07:43:14;;;;;;;6.30;3.08;;;5.00;99.90;;;3.34;89.16;102140.53;4925116;28;102926;-40
2021/03/17 07:45:44;;;;;;;5.75;2.67;;;5.00;99.90;;;3.42;89.07;102144.28;4942091;28;104462;-40
2021/03/17 07:48:13;;;;;;;5.30;2.42;;;5.00;99.90;;;3.38;87.96;102145.53;4941454;28;102688;-40
2021/03/17 07:50:43;;;;;;;7.78;2.65;;;5.00;99.90;;;3.41;88.21;102142.56;4941291;28;103392;-39
2021/03/17 07:53:23;;;;;;;4.85;2.17;;;5.10;99.90;;;3.40;87.84;102140.88;4940849;28;102681;-40
2021/03/17 07:55:56;;;;;;;5.65;2.35;;;5.10;99.90;;;3.45;86.93;102144.00;4909393;28;102492;-40
2021/03/17 07:58:24;;;;;;;4.30;2.05;;;5.10;99.90;;;3.53;87.42;102150.56;4941306;28;102760;-40
2021/03/17 08:00:53;;;;;;;5.07;2.75;;;5.10;99.90;;;3.61;87.23;102153.50;4924462;28;102577;-40
2021/03/17 08:03:24;;;;;;;4.05;2.40;;;5.20;99.90;;;3.67;88.30;102160.16;4940575;28;103587;-40
2021/03/17 08:05:52;;;;;;;5.05;2.80;;;5.30;99.90;;;3.72;87.30;102160.66;4942004;28;102288;-40
2021/03/17 08:08:23;;;;;;;5.95;2.60;;;5.30;99.90;;;3.70;86.19;102168.00;4940252;28;102171;-40
2021/03/17 08:10:52;;;;;;;5.97;2.40;;;5.30;99.90;;;3.78;85.85;102164.63;4941163;28;103744;-40
2021/03/17 08:13:20;;;;;;;4.70;2.40;;;5.40;99.90;;;3.81;84.98;102170.63;4976013;22;102913;-39
2021/03/17 08:15:49;;;;;;;5.57;2.50;;;5.40;99.90;;;3.82;84.44;102172.34;4916866;28;103584;-39
2021/03/17 08:18:36;;;;;;;3.67;2.10;;;5.40;99.90;;;3.86;85.09;102176.47;4902221;28;102477;-39
2021/03/17 08:21:04;;;;;;;5.18;2.30;;;5.50;99.90;;;3.79;83.70;102174.44;4903318;28;102395;-40
2021/03/17 08:23:41;;;;;;;3.73;1.60;;;5.40;99.90;;;3.88;84.38;102173.66;4900784;28;103535;-39
2021/03/17 08:26:28;;;;;;;4.80;2.10;;;5.50;99.90;;;3.93;83.55;102176.78;4903004;28;102309;-40
2021/03/17 08:28:57;;;;;;;6.18;2.40;;;5.50;99.90;;;3.89;83.29;102160.00;4902789;28;102670;-40
2021/03/17 08:31:48;;;;;;;5.93;1.95;;;5.60;99.90;;;4.04;83.82;102175.84;4917300;28;103360;-40
2021/03/17 08:34:27;;;;;;;3.85;1.70;;;5.60;99.90;;;4.07;81.61;102169.31;4902113;28;103709;-39
2021/03/17 08:36:57;;;;;;;3.60;1.60;;;5.60;99.90;;;4.07;81.89;102169.31;4903582;28;104209;-39
2021/03/17 08:39:45;;;;;;;4.60;1.95;;;5.70;99.90;;;4.17;82.33;102176.44;4902817;28;102552;-39
2021/03/17 08:42:27;;;;;;;6.38;2.08;;;5.70;99.90;;;4.14;80.04;102181.28;4902097;28;105283;-40
2021/03/17 08:44:59;;;;;;;5.72;2.20;;;5.70;99.90;;;4.12;80.50;102178.72;4902451;28;102555;-39
2021/03/17 08:47:48;;;;;;;7.25;2.85;;;5.70;99.90;;;4.01;80.24;102181.53;4903627;28;102784;-39
2021/03/17 08:50:30;;;;;;;7.68;2.58;;;5.70;99.90;;;4.14;81.05;102187.53;4901904;28;102974;-39
2021/03/17 08:52:57;;;;;;;6.88;3.65;;;5.70;99.90;;;4.29;81.30;102184.47;4886388;28;106206;-40
2021/03/17 08:55:37;;;;;;;6.80;2.67;;;5.80;99.90;;;4.65;81.88;102190.22;4900101;28;103571;-39
2021/03/17 08:58:07;;;;;;;6.53;3.08;;;6.00;99.90;;;4.95;79.31;102191.13;4901246;28;104565;-40
2021/03/17 09:00:48;;;;;;;10.05;3.40;;;6.30;99.90;;;5.21;80.13;102197.81;4901895;28;102682;-40
2021/03/17 09:03:36;;;;;;;6.82;2.80;;;6.60;99.90;;;5.03;76.04;102193.13;4902095;28;104201;-44
2021/03/17 09:06:16;;;;;;;6.35;3.30;;;6.60;99.90;;;4.89;77.16;102207.91;4902901;28;103730;-40
2021/03/17 09:09:04;;;;;;;6.38;2.40;;;6.50;99.90;;;4.73;75.88;102203.06;4905633;28;103496;-40
2021/03/17 09:11:31;;;;;;;4.95;2.78;;;6.40;99.90;;;4.74;75.22;102211.00;4902564;28;103365;-40
2021/03/17 09:14:03;;;;;;;5.15;2.50;;;6.40;99.90;;;4.79;75.09;102198.94;4919960;28;104419;-39
2021/03/17 09:16:35;;;;;;;5.60;2.22;;;6.40;99.90;;;4.79;75.56;102193.53;4916074;28;102317;-40
2021/03/17 09:19:14;;;;;;;4.93;1.77;;;6.40;99.90;;;4.93;74.21;102203.09;4925056;28;102523;-39
2021/03/17 09:21:45;;;;;;;5.27;2.00;;;6.40;99.90;;;5.08;74.09;102200.81;4923033;28;103292;-39
2021/03/17 09:24:28;;;;;;;3.00;1.40;;;6.50;99.90;;;4.94;71.19;102202.94;4908266;28;102414;-39
2021/03/17 09:27:08;;;;;;;4.55;1.40;;;6.60;99.90;;;4.67;70.82;102196.34;4924779;28;102474;-40
2021/03/17 09:29:36;;;;;;;3.08;1.05;;;6.40;99.90;;;4.54;71.27;102187.66;4923416;28;103384;-39
2021/03/17 09:32:05;;;;;;;4.63;1.10;;;6.30;99.90;;;4.56;72.98;102191.09;4922883;28;102736;-39
2021/03/17 09:34:36;;;;;;;3.00;0.95;;;6.20;99.90;;;4.39;71.80;102193.44;4923693;28;103384;-40
2021/03/17 09:37:07;;;;;;;3.72;1.10;;;6.10;99.90;;;4.35;73.54;102186.63;4925246;28;102277;-40
2021/03/17 09:39:37;;;;;;;2.88;1.20;;;6.00;99.90;;;4.38;74.07;102193.59;4924714;28;103598;-40
2021/03/17 09:42:05;;;;;;;3.30;1.27;;;6.00;99.90;;;4.41;74.09;102188.75;4924318;28;102335;-40
2021/03/17 09:44:32;;;;;;;3.45;1.20;;;6.00;99.90;;;4.42;74.61;102197.72;4922191;28;104210;-39
2021/03/17 09:46:59;;;;;;;2.90;1.37;;;6.00;99.90;;;4.45;72.79;102186.63;4906811;28;103270;-40
2021/03/17 09:49:28;;;;;;;2.23;0.87;;;6.00;99.90;;;4.40;72.28;102187.03;4922773;28;102441;-39
2021/03/17 09:52:01;;;;;;;5.43;1.17;;;6.00;99.90;;;4.39;74.07;102189.91;4924383;28;102604;-39
2021/03/17 09:54:33;;;;;;;3.75;1.50;;;6.00;99.90;;;4.44;74.23;102190.34;4924165;28;104196;-39
2021/03/17 09:57:05;;;;;;;4.05;1.70;;;6.00;99.90;;;4.51;74.76;102196.03;4922958;28;102335;-40
2021/03/17 09:59:40;;;;;;;2.65;1.02;;;6.10;99.90;;;4.44;72.95;102195.75;4922699;28;103079;-40
2021/03/17 10:02:21;;;;;;;2.30;0.90;;;6.10;99.90;;;4.42;72.31;102193.16;4924041;28;103529;-39
2021/03/17 10:05:02;;;;;;;2.25;0.85;;;6.00;99.90;;;4.41;72.22;102199.56;4923279;28;102921;-39
2021/03/17 10:07:32;;;;;;;1.42;0.80;;;6.00;99.90;;;4.41;71.09;102193.31;4923751;28;103351;-39
2021/03/17 10:10:06;;;;;;;1.50;0.90;;;6.10;99.90;;;4.34;71.26;102195.72;4924295;28;103344;-39
2021/03/17 10:12:33;;;;;;;2.47;0.80;;;6.00;99.90;;;4.29;71.55;102189.88;4922185;28;103364;-39
2021/03/17 10:15:08;;;;;;;;;;;6.00;99.90;;;4.20;70.06;102191.53;4923261;28;105191;-39
2021/03/17 10:17:37;;;;;;;2.38;1.10;;;5.90;99.90;;;4.18;66.64;102188.97;4923988;28;102454;-39
2021/03/17 10:20:11;;;;;;;3.40;1.13;;;5.90;99.90;;;4.27;69.22;102198.09;4923975;28;105285;-39
2021/03/17 10:22:40;;;;;;;4.90;1.10;;;5.90;99.90;;;4.52;70.29;102195.06;4922574;28;103648;-39
2021/03/17 10:25:21;;;;;;;2.67;1.10;;;6.00;99.90;;;4.72;70.79;102196.78;4921882;28;104319;-40
2021/03/17 10:27:58;;;;;;;3.30;1.40;;;6.20;99.90;;;4.93;70.10;102198.53;4923930;28;103925;-39
2021/03/17 10:30:29;;;;;;;3.13;1.17;;;6.40;99.90;;;4.98;68.94;102188.13;4922799;28;102373;-40
2021/03/17 10:35:35;;;;;;;3.67;1.17;;;6.60;99.90;;;5.23;66.53;102180.44;4923510;28;103384;-39
2021/03/17 10:38:06;;;;;;;3.00;1.00;;;6.70;99.90;;;5.17;65.85;102190.00;4922148;28;102329;-39
2021/03/17 10:40:36;;;;;;;2.70;0.93;;;6.80;99.90;;;5.23;66.00;102191.25;4922687;28;103488;-39
2021/03/17 10:43:14;;;;;;;2.92;0.77;;;6.80;99.90;;;5.17;64.15;102181.88;4923641;28;102638;-40
2021/03/17 10:45:55;;;;;;;0.67;0.50;;;6.80;99.90;;;5.28;66.34;102180.84;4921857;28;102618;-39
2021/03/17 10:48:26;;;;;;;4.38;0.80;;;6.80;99.90;;;5.30;63.51;102178.00;4923629;28;102194;-39